createdAt,value
2017-05-13T00:00:25.803Z,6.40
2017-05-13T00:02:53.735Z,7.14
2017-05-13T00:05:20.963Z,6.90
2017-05-13T00:07:48.278Z,6.04
2017-05-13T00:10:15.531Z,6.08
2017-05-13T00:12:42.711Z,6.32
2017-05-13T00:15:09.951Z,5.88
2017-05-13T00:17:37.241Z,6.68
2017-05-13T00:20:04.386Z,5.42
2017-05-13T00:22:31.557Z,6.64
2017-05-13T00:24:58.765Z,5.22
2017-05-13T00:27:25.984Z,4.82
2017-05-13T00:29:53.179Z,5.44
2017-05-13T00:32:20.359Z,5.86
2017-05-13T00:34:47.579Z,6.88
2017-05-13T00:37:14.740Z,5.82
2017-05-13T00:39:41.892Z,4.96
2017-05-13T00:42:09.073Z,4.32
2017-05-13T00:44:37.028Z,5.16
2017-05-13T00:47:04.920Z,4.90
2017-05-13T00:49:32.099Z,4.74
2017-05-13T00:51:59.355Z,4.52
2017-05-13T00:54:26.525Z,4.26
2017-05-13T00:56:53.665Z,4.82
2017-05-13T00:59:21.062Z,4.94
2017-05-13T01:01:48.984Z,4.44
2017-05-13T01:04:16.225Z,4.48
2017-05-13T01:06:43.472Z,4.54
2017-05-13T01:09:10.676Z,5.38
2017-05-13T01:11:38.616Z,4.92
2017-05-13T01:14:05.887Z,5.00
2017-05-13T01:16:33.795Z,5.06
2017-05-13T01:19:00.994Z,6.44
2017-05-13T01:21:28.316Z,6.30
2017-05-13T01:23:55.689Z,6.78
2017-05-13T01:26:22.880Z,5.86
2017-05-13T01:28:50.783Z,6.26
2017-05-13T01:31:17.932Z,7.24
2017-05-13T01:33:45.115Z,6.82
2017-05-13T01:36:12.260Z,6.28
2017-05-13T01:38:39.487Z,6.34
2017-05-13T01:41:06.668Z,5.68
2017-05-13T01:43:33.808Z,6.38
2017-05-13T01:46:00.988Z,6.58
2017-05-13T01:48:28.955Z,6.46
2017-05-13T01:50:56.898Z,6.18
2017-05-13T01:53:24.060Z,5.30
2017-05-13T01:55:52.691Z,4.50
2017-05-13T01:58:19.908Z,5.14
2017-05-13T02:00:47.060Z,5.32
2017-05-13T02:03:15.024Z,4.72
2017-05-13T02:05:42.957Z,5.58
2017-05-13T02:08:10.126Z,5.22
2017-05-13T02:10:37.296Z,5.22
2017-05-13T02:13:04.531Z,5.22
2017-05-13T02:15:35.603Z,5.00
2017-05-13T02:18:02.939Z,5.46
2017-05-13T02:20:30.196Z,5.26
2017-05-13T02:22:57.380Z,5.30
2017-05-13T02:25:24.573Z,5.10
2017-05-13T02:27:52.484Z,5.10
2017-05-13T02:30:19.689Z,5.48
2017-05-13T02:32:46.880Z,4.72
2017-05-13T02:35:14.244Z,5.00
2017-05-13T02:37:41.433Z,6.28
2017-05-13T02:40:08.655Z,6.10
2017-05-13T02:42:35.808Z,6.82
2017-05-13T02:45:03.084Z,5.70
2017-05-13T02:47:30.310Z,6.38
2017-05-13T02:49:57.481Z,6.76
2017-05-13T02:52:24.681Z,5.96
2017-05-13T02:54:51.864Z,6.18
2017-05-13T02:57:19.022Z,5.50
2017-05-13T02:59:46.194Z,6.72
2017-05-13T03:02:13.407Z,7.00
2017-05-13T03:04:40.820Z,6.50
2017-05-13T03:07:07.980Z,7.58
2017-05-13T03:09:35.192Z,6.52
2017-05-13T03:12:02.381Z,7.70
2017-05-13T03:14:29.547Z,7.36
2017-05-13T03:16:56.730Z,8.44
2017-05-13T03:19:24.104Z,7.72
2017-05-13T03:21:52.033Z,7.60
2017-05-13T03:24:19.200Z,8.46
2017-05-13T03:26:46.396Z,7.04
2017-05-13T03:29:13.724Z,8.54
2017-05-13T03:31:41.655Z,7.44
2017-05-13T03:34:08.912Z,6.96
2017-05-13T03:36:36.098Z,6.64
2017-05-13T03:39:04.028Z,7.14
2017-05-13T03:41:31.193Z,6.56
2017-05-13T03:43:58.432Z,5.68
2017-05-13T03:46:25.657Z,5.50
2017-05-13T03:48:52.812Z,5.68
2017-05-13T03:51:19.970Z,4.96
2017-05-13T03:53:47.480Z,5.48
2017-05-13T03:56:15.571Z,6.38
2017-05-13T03:58:42.712Z,5.76
2017-05-13T04:01:11.727Z,7.08
2017-05-13T04:03:38.881Z,6.06
2017-05-13T04:06:06.050Z,5.08
2017-05-13T04:08:33.224Z,5.22
2017-05-13T04:11:01.173Z,5.36
2017-05-13T04:13:28.304Z,5.60
2017-05-13T04:15:55.613Z,5.68
2017-05-13T04:18:23.526Z,5.82
2017-05-13T04:20:50.719Z,5.30
2017-05-13T04:23:18.705Z,5.72
2017-05-13T04:25:46.631Z,6.66
2017-05-13T04:28:13.918Z,5.42
2017-05-13T04:30:41.865Z,5.32
2017-05-13T04:33:09.049Z,4.82
2017-05-13T04:35:36.255Z,6.62
2017-05-13T04:38:03.509Z,7.14
2017-05-13T04:40:30.701Z,6.84
2017-05-13T04:42:57.967Z,5.68
2017-05-13T04:45:25.356Z,5.40
2017-05-13T04:47:52.548Z,5.66
2017-05-13T04:50:20.474Z,5.66
2017-05-13T04:52:47.676Z,5.68
2017-05-13T04:55:14.831Z,6.00
2017-05-13T04:57:42.177Z,5.88
2017-05-13T05:00:09.516Z,6.08
2017-05-13T05:02:37.435Z,6.52
2017-05-13T05:05:04.603Z,5.52
2017-05-13T05:07:31.821Z,6.44
2017-05-13T05:09:58.997Z,6.30
2017-05-13T05:12:26.172Z,7.50
2017-05-13T05:14:54.115Z,6.92
2017-05-13T05:17:21.356Z,6.92
2017-05-13T05:19:48.499Z,6.72
2017-05-13T05:22:15.700Z,6.88
2017-05-13T05:24:43.640Z,7.96
2017-05-13T05:27:10.845Z,6.20
2017-05-13T05:29:38.009Z,6.98
2017-05-13T05:32:05.281Z,7.14
2017-05-13T05:34:32.562Z,6.48
2017-05-13T05:37:00.476Z,6.12
2017-05-13T05:39:27.775Z,6.38
2017-05-13T05:41:54.952Z,5.04
2017-05-13T05:44:22.101Z,5.70
2017-05-13T05:46:49.315Z,5.46
2017-05-13T05:49:16.463Z,5.14
2017-05-13T05:51:43.663Z,5.10
2017-05-13T05:54:10.825Z,4.70
2017-05-13T05:56:38.051Z,4.90
2017-05-13T05:59:05.235Z,5.06
2017-05-13T06:01:32.415Z,3.88
2017-05-13T06:03:59.632Z,4.40
2017-05-13T06:06:26.847Z,3.70
2017-05-13T06:08:54.009Z,3.38
2017-05-13T06:11:21.187Z,2.72
2017-05-13T06:13:48.357Z,2.82
2017-05-13T06:16:15.561Z,2.28
2017-05-13T06:18:42.760Z,3.90
2017-05-13T06:21:09.939Z,1.90
2017-05-13T06:23:37.851Z,1.82
2017-05-13T06:26:05.042Z,3.82
2017-05-13T06:28:33.057Z,2.22
2017-05-13T06:31:00.393Z,2.08
2017-05-13T06:33:27.553Z,1.72
2017-05-13T06:35:54.929Z,1.84
2017-05-13T06:38:22.133Z,1.58
2017-05-13T06:40:50.107Z,2.06
2017-05-13T06:43:17.323Z,2.14
2017-05-13T06:45:44.471Z,1.78
2017-05-13T06:48:11.655Z,1.46
2017-05-13T06:50:38.846Z,1.44
2017-05-13T06:53:06.055Z,1.40
2017-05-13T06:55:34.099Z,1.56
2017-05-13T06:58:01.275Z,1.86
2017-05-13T07:00:28.468Z,1.92
2017-05-13T07:02:55.676Z,1.80
2017-05-13T07:05:23.775Z,1.72
2017-05-13T07:07:52.230Z,1.70
2017-05-13T07:10:19.645Z,2.06
2017-05-13T07:12:46.818Z,2.18
2017-05-13T07:15:14.935Z,1.88
2017-05-13T07:17:42.304Z,2.72
2017-05-13T07:20:09.536Z,1.86
2017-05-13T07:22:36.814Z,1.92
2017-05-13T07:25:04.952Z,2.22
2017-05-13T07:27:32.152Z,2.48
2017-05-13T07:30:00.343Z,2.92
2017-05-13T07:32:27.565Z,1.88
2017-05-13T07:34:54.717Z,1.94
2017-05-13T07:37:22.009Z,1.80
2017-05-13T07:39:49.959Z,2.18
2017-05-13T07:42:17.361Z,4.56
2017-05-13T07:44:44.650Z,2.10
2017-05-13T07:47:11.836Z,2.28
2017-05-13T07:49:39.024Z,1.80
2017-05-13T07:52:06.279Z,2.08
2017-05-13T07:54:33.451Z,1.84
2017-05-13T07:57:00.647Z,2.46
2017-05-13T07:59:27.888Z,2.32
2017-05-13T08:01:55.027Z,1.50
2017-05-13T08:04:22.964Z,2.10
2017-05-13T08:06:50.223Z,1.98
2017-05-13T08:09:17.425Z,1.98
2017-05-13T08:11:44.703Z,1.64
2017-05-13T08:14:11.852Z,2.18
2017-05-13T08:16:39.025Z,2.08
2017-05-13T08:19:06.263Z,1.52
2017-05-13T08:21:33.412Z,2.12
2017-05-13T08:24:00.680Z,1.86
2017-05-13T08:26:27.860Z,2.00
2017-05-13T08:28:55.045Z,1.62
2017-05-13T08:31:22.268Z,1.78
2017-05-13T08:33:49.491Z,1.94
2017-05-13T08:36:17.411Z,2.10
2017-05-13T08:38:44.606Z,2.20
2017-05-13T08:41:11.768Z,1.68
2017-05-13T08:43:39.768Z,2.22
2017-05-13T08:46:06.971Z,3.04
2017-05-13T08:48:34.404Z,2.30
2017-05-13T08:51:01.599Z,2.12
2017-05-13T08:53:29.520Z,2.02
2017-05-13T08:55:56.715Z,1.80
2017-05-13T08:58:24.824Z,2.10
2017-05-13T09:00:53.111Z,1.84
2017-05-13T09:03:20.920Z,2.30
2017-05-13T09:05:48.871Z,1.76
2017-05-13T09:08:16.047Z,2.00
2017-05-13T09:10:44.177Z,1.92
2017-05-13T09:13:11.373Z,2.28
2017-05-13T09:15:38.636Z,2.18
2017-05-13T09:18:05.947Z,1.76
2017-05-13T09:20:33.865Z,1.60
2017-05-13T09:23:01.168Z,1.86
2017-05-13T09:25:28.398Z,1.98
2017-05-13T09:27:55.616Z,1.96
2017-05-13T09:30:22.753Z,1.68
2017-05-13T09:32:49.919Z,2.08
2017-05-13T09:35:17.120Z,2.00
2017-05-13T09:37:45.023Z,2.20
2017-05-13T09:40:12.156Z,1.34
2017-05-13T09:42:40.149Z,2.00
2017-05-13T09:45:07.707Z,1.82
2017-05-13T09:47:35.106Z,1.54
2017-05-13T09:50:02.452Z,1.80
2017-05-13T09:52:29.663Z,1.68
2017-05-13T09:54:56.821Z,1.90
2017-05-13T09:57:25.805Z,1.98
2017-05-13T09:59:52.982Z,1.66
2017-05-13T10:02:20.139Z,1.80
2017-05-13T10:04:47.336Z,1.46
2017-05-13T10:07:14.582Z,1.50
2017-05-13T10:09:42.540Z,1.80
2017-05-13T10:12:10.481Z,2.28
2017-05-13T10:14:37.714Z,2.94
2017-05-13T10:17:04.935Z,2.28
2017-05-13T10:19:32.095Z,1.50
2017-05-13T10:21:59.327Z,1.94
2017-05-13T10:24:26.591Z,1.40
2017-05-13T10:26:53.732Z,1.90
2017-05-13T10:29:21.048Z,1.84
2017-05-13T10:31:49.084Z,1.62
2017-05-13T10:34:16.245Z,1.32
2017-05-13T10:36:43.465Z,1.64
2017-05-13T10:39:10.668Z,1.66
2017-05-13T10:41:37.893Z,1.56
2017-05-13T10:44:05.115Z,1.66
2017-05-13T10:46:32.312Z,1.30
2017-05-13T10:48:59.479Z,1.30
2017-05-13T10:51:27.416Z,1.36
2017-05-13T10:53:54.611Z,1.30
2017-05-13T10:56:22.708Z,1.30
2017-05-13T10:58:50.015Z,1.08
2017-05-13T11:01:17.219Z,1.34
2017-05-13T11:03:44.364Z,1.52
2017-05-13T11:06:11.655Z,1.50
2017-05-13T11:08:38.824Z,1.48
2017-05-13T11:11:06.755Z,1.78
2017-05-13T11:13:33.971Z,1.54
2017-05-13T11:16:01.161Z,1.60
2017-05-13T11:18:28.365Z,1.50
2017-05-13T11:20:55.624Z,1.80
2017-05-13T11:23:22.816Z,2.30
2017-05-13T11:25:49.983Z,1.96
2017-05-13T11:28:17.206Z,1.66
2017-05-13T11:30:44.364Z,1.70
2017-05-13T11:33:11.601Z,1.66
2017-05-13T11:35:38.777Z,1.30
2017-05-13T11:38:05.958Z,1.30
2017-05-13T11:40:33.212Z,1.30
2017-05-13T11:43:00.384Z,1.34
2017-05-13T11:45:27.537Z,1.46
2017-05-13T11:47:54.732Z,1.52
2017-05-13T11:50:21.945Z,1.66
2017-05-13T11:52:49.120Z,1.40
2017-05-13T11:55:16.333Z,1.92
2017-05-13T11:57:43.574Z,1.90
2017-05-13T12:00:10.764Z,1.64
2017-05-13T12:02:37.957Z,1.30
2017-05-13T12:05:05.585Z,1.34
2017-05-13T12:07:32.752Z,1.50
2017-05-13T12:10:00.005Z,1.08
2017-05-13T12:12:27.947Z,1.08
2017-05-13T12:14:55.128Z,1.10
2017-05-13T12:17:23.057Z,1.30
2017-05-13T12:19:50.250Z,1.04
2017-05-13T12:22:18.569Z,0.90
2017-05-13T12:24:46.232Z,0.92
2017-05-13T12:27:13.944Z,1.04
2017-05-13T12:29:41.879Z,1.04
2017-05-13T12:32:09.045Z,1.08
2017-05-13T12:34:36.187Z,1.46
2017-05-13T12:37:04.183Z,1.40
2017-05-13T12:39:32.163Z,1.40
2017-05-13T12:41:59.358Z,1.18
2017-05-13T12:44:26.577Z,1.12
2017-05-13T12:46:53.735Z,1.10
2017-05-13T12:49:20.898Z,1.12
2017-05-13T12:51:48.090Z,1.10
2017-05-13T12:54:16.020Z,1.14
2017-05-13T12:56:43.240Z,1.06
2017-05-13T12:59:10.527Z,1.08
2017-05-13T13:01:37.790Z,1.24
2017-05-13T13:04:05.011Z,1.20
2017-05-13T13:06:32.320Z,1.10
2017-05-13T13:09:00.229Z,1.00
2017-05-13T13:11:27.493Z,1.24
2017-05-13T13:13:54.695Z,1.22
2017-05-13T13:16:22.627Z,0.84
2017-05-13T13:18:55.258Z,1.28
2017-05-13T13:21:22.416Z,1.28
2017-05-13T13:23:49.596Z,0.92
2017-05-13T13:26:16.868Z,1.00
2017-05-13T13:28:44.055Z,1.16
2017-05-13T13:31:11.343Z,0.70
2017-05-13T13:33:38.618Z,0.68
2017-05-13T13:36:05.826Z,0.84
2017-05-13T13:38:32.994Z,0.60
2017-05-13T13:41:00.172Z,0.70
2017-05-13T13:43:27.400Z,0.86
2017-05-13T13:45:54.665Z,0.72
2017-05-13T13:48:21.865Z,0.74
2017-05-13T13:50:49.055Z,0.70
2017-05-13T13:53:16.356Z,0.86
2017-05-13T13:55:44.347Z,0.80
2017-05-13T13:58:11.607Z,0.70
2017-05-13T14:00:38.777Z,0.60
2017-05-13T14:03:05.992Z,0.56
2017-05-13T14:05:33.223Z,0.50
2017-05-13T14:08:00.419Z,0.70
2017-05-13T14:10:27.625Z,0.74
2017-05-13T14:12:55.593Z,0.54
2017-05-13T14:15:31.802Z,0.80
2017-05-13T14:17:59.155Z,0.74
2017-05-13T14:20:26.384Z,1.00
2017-05-13T14:22:53.564Z,0.62
2017-05-13T14:25:20.956Z,0.90
2017-05-13T14:27:48.889Z,0.90
2017-05-13T14:30:16.128Z,1.22
2017-05-13T14:32:43.370Z,0.90
2017-05-13T14:35:10.675Z,1.02
2017-05-13T14:37:38.609Z,0.82
2017-05-13T14:40:05.901Z,0.74
2017-05-13T14:42:34.645Z,1.00
2017-05-13T14:45:01.819Z,0.90
2017-05-13T14:47:29.033Z,0.80
2017-05-13T14:49:56.287Z,0.90
2017-05-13T14:52:23.619Z,1.10
2017-05-13T14:54:50.800Z,1.16
2017-05-13T14:57:18.012Z,1.00
2017-05-13T14:59:45.268Z,1.16
2017-05-13T15:02:12.512Z,0.90
2017-05-13T15:04:40.667Z,1.12
2017-05-13T15:07:08.642Z,0.96
2017-05-13T15:09:36.609Z,1.10
2017-05-13T15:12:04.569Z,1.20
2017-05-13T15:14:32.779Z,1.14
2017-05-13T15:17:00.027Z,1.40
2017-05-13T15:19:27.227Z,1.30
2017-05-13T15:21:54.562Z,1.20
2017-05-13T15:24:21.818Z,1.30
2017-05-13T15:26:48.963Z,1.16
2017-05-13T15:29:16.154Z,0.96
2017-05-13T15:31:44.122Z,1.18
2017-05-13T15:34:12.051Z,1.24
2017-05-13T15:36:39.292Z,1.56
2017-05-13T15:39:06.541Z,1.00
2017-05-13T15:41:33.727Z,1.10
2017-05-13T15:44:00.996Z,1.10
2017-05-13T15:46:28.976Z,1.20
2017-05-13T15:48:56.334Z,1.10
2017-05-13T15:51:23.743Z,1.00
2017-05-13T15:53:51.014Z,1.14
2017-05-13T15:56:18.948Z,1.12
2017-05-13T15:58:46.345Z,1.20
2017-05-13T16:01:14.276Z,1.22
2017-05-13T16:03:41.516Z,1.00
2017-05-13T16:06:08.823Z,1.44
2017-05-13T16:08:36.799Z,1.20
2017-05-13T16:11:04.063Z,1.20
2017-05-13T16:13:31.280Z,0.96
2017-05-13T16:15:59.190Z,0.98
2017-05-13T16:18:26.417Z,1.30
2017-05-13T16:20:53.797Z,0.94
2017-05-13T16:23:21.036Z,0.88
2017-05-13T16:25:48.275Z,1.30
2017-05-13T16:28:15.529Z,0.98
2017-05-13T16:30:42.758Z,1.40
2017-05-13T16:33:10.965Z,1.30
2017-05-13T16:35:38.172Z,1.18
2017-05-13T16:38:05.597Z,1.42
2017-05-13T16:40:32.796Z,1.26
2017-05-13T16:43:00.735Z,1.00
2017-05-13T16:45:28.019Z,1.20
2017-05-13T16:47:55.997Z,0.90
2017-05-13T16:50:23.181Z,1.08
2017-05-13T16:52:50.378Z,1.18
2017-05-13T16:55:18.376Z,1.82
2017-05-13T16:57:45.580Z,1.64
2017-05-13T17:00:12.715Z,1.30
2017-05-13T17:02:39.908Z,1.34
2017-05-13T17:05:07.123Z,1.26
2017-05-13T17:07:34.328Z,1.24
2017-05-13T17:10:02.526Z,1.20
2017-05-13T17:12:29.809Z,1.28
2017-05-13T17:14:57.009Z,1.40
2017-05-13T17:17:24.216Z,1.80
2017-05-13T17:19:52.307Z,1.60
2017-05-13T17:22:20.173Z,1.60
2017-05-13T17:24:47.365Z,1.90
2017-05-13T17:27:14.568Z,1.50
2017-05-13T17:29:42.541Z,1.40
2017-05-13T17:32:09.697Z,1.46
2017-05-13T17:34:36.910Z,1.60
2017-05-13T17:37:04.855Z,1.34
2017-05-13T17:39:32.079Z,1.56
2017-05-13T17:41:59.249Z,1.80
2017-05-13T17:44:26.498Z,1.50
2017-05-13T17:46:53.694Z,1.48
2017-05-13T17:49:21.657Z,3.26
2017-05-13T17:51:49.636Z,3.08
2017-05-13T17:54:17.601Z,3.20
2017-05-13T17:56:45.495Z,2.34
2017-05-13T17:59:12.832Z,2.38
2017-05-13T18:01:40.704Z,3.10
2017-05-13T18:04:07.931Z,5.50
2017-05-13T18:06:35.084Z,2.70
2017-05-13T18:09:08.259Z,1.90
2017-05-13T18:11:35.394Z,2.22
2017-05-13T18:14:03.393Z,2.10
2017-05-13T18:16:30.692Z,2.48
2017-05-13T18:18:57.897Z,2.50
2017-05-13T18:21:25.105Z,3.50
2017-05-13T18:23:53.036Z,12.24
2017-05-13T18:26:20.247Z,4.30
2017-05-13T18:28:47.411Z,2.34
2017-05-13T18:31:15.031Z,6.34
2017-05-13T18:33:43.059Z,3.98
2017-05-13T18:36:10.237Z,2.70
2017-05-13T18:38:37.459Z,2.54
2017-05-13T18:41:04.697Z,2.98
2017-05-13T18:43:38.834Z,6.30
2017-05-13T18:46:06.046Z,5.52
2017-05-13T18:48:33.310Z,3.68
2017-05-13T18:51:00.540Z,4.50
2017-05-13T18:53:27.874Z,4.78
2017-05-13T18:55:55.837Z,4.82
2017-05-13T18:58:23.782Z,4.10
2017-05-13T19:00:51.010Z,4.08
2017-05-13T19:03:18.762Z,2.86
2017-05-13T19:05:45.926Z,3.80
2017-05-13T19:08:13.057Z,4.32
2017-05-13T19:10:40.299Z,4.04
2017-05-13T19:13:08.524Z,3.94
2017-05-13T19:15:35.752Z,3.52
2017-05-13T19:18:02.992Z,3.66
2017-05-13T19:20:30.155Z,2.94
2017-05-13T19:22:57.348Z,3.82
2017-05-13T19:25:25.334Z,8.92
2017-05-13T19:27:52.632Z,4.56
2017-05-13T19:30:19.888Z,4.70
2017-05-13T19:32:47.096Z,8.48
2017-05-13T19:35:14.487Z,18.48
2017-05-13T19:37:41.699Z,16.26
2017-05-13T19:40:08.911Z,6.36
2017-05-13T19:42:36.175Z,5.72
2017-05-13T19:45:04.230Z,4.10
2017-05-13T19:47:31.409Z,5.30
2017-05-13T19:49:58.645Z,3.86
2017-05-13T19:52:26.717Z,3.96
2017-05-13T19:54:54.771Z,3.54
2017-05-13T19:57:21.981Z,3.34
2017-05-13T19:59:49.157Z,2.98
2017-05-13T20:02:16.438Z,3.42
2017-05-13T20:04:44.383Z,3.50
2017-05-13T20:07:11.692Z,3.98
2017-05-13T20:09:38.972Z,1.94
2017-05-13T20:12:06.226Z,2.22
2017-05-13T20:14:33.404Z,1.54
2017-05-13T20:17:00.620Z,1.38
2017-05-13T20:19:27.816Z,1.50
2017-05-13T20:21:56.690Z,1.88
2017-05-13T20:24:24.054Z,1.44
2017-05-13T20:26:51.264Z,2.24
2017-05-13T20:29:18.441Z,1.92
2017-05-13T20:31:45.744Z,1.90
2017-05-13T20:34:15.028Z,1.98
2017-05-13T20:36:40.912Z,1.84
2017-05-13T20:39:08.170Z,1.80
2017-05-13T20:41:36.087Z,1.90
2017-05-13T20:44:03.363Z,1.94
2017-05-13T20:46:30.606Z,1.98
2017-05-13T20:48:57.824Z,3.00
2017-05-13T20:51:24.983Z,2.78
2017-05-13T20:53:52.188Z,2.40
2017-05-13T20:56:19.398Z,2.96
2017-05-13T20:58:46.591Z,3.72
2017-05-13T21:01:13.871Z,2.82
2017-05-13T21:03:41.059Z,3.16
2017-05-13T21:06:08.245Z,3.70
2017-05-13T21:08:35.477Z,4.06
2017-05-13T21:11:02.700Z,3.78
2017-05-13T21:13:29.881Z,4.24
2017-05-13T21:15:57.217Z,3.70
2017-05-13T21:18:24.404Z,3.68
2017-05-13T21:20:51.569Z,3.74
2017-05-13T21:23:19.495Z,4.26
2017-05-13T21:25:47.357Z,4.14
2017-05-13T21:28:14.558Z,4.60
2017-05-13T21:30:42.457Z,4.40
2017-05-13T21:33:09.670Z,5.30
2017-05-13T21:35:37.584Z,4.92
2017-05-13T21:38:10.814Z,4.32
2017-05-13T21:40:38.001Z,4.00
2017-05-13T21:43:05.201Z,4.26
2017-05-13T21:45:32.425Z,4.98
2017-05-13T21:47:59.612Z,5.58
2017-05-13T21:50:26.781Z,5.20
2017-05-13T21:52:54.763Z,5.30
2017-05-13T21:55:21.983Z,4.26
2017-05-13T21:57:49.158Z,5.60
2017-05-13T22:00:16.323Z,6.06
2017-05-13T22:02:43.522Z,5.60
2017-05-13T22:05:10.866Z,5.04
2017-05-13T22:07:38.049Z,4.50
2017-05-13T22:10:06.046Z,5.00
2017-05-13T22:12:33.337Z,5.34
2017-05-13T22:15:00.524Z,5.94
2017-05-13T22:17:28.482Z,6.14
2017-05-13T22:19:56.427Z,4.38
2017-05-13T22:22:23.624Z,4.80
2017-05-13T22:24:50.799Z,4.38
2017-05-13T22:27:18.068Z,4.52
2017-05-13T22:29:45.215Z,4.76
2017-05-13T22:32:12.506Z,4.76
2017-05-13T22:34:40.436Z,5.20
2017-05-13T22:37:07.680Z,4.50
2017-05-13T22:39:34.845Z,5.72
2017-05-13T22:42:02.023Z,4.12
2017-05-13T22:44:30.056Z,5.40
2017-05-13T22:46:57.211Z,5.60
2017-05-13T22:49:24.399Z,5.24
2017-05-13T22:51:52.364Z,4.46
2017-05-13T22:54:20.291Z,4.28
2017-05-13T22:56:47.481Z,3.66
2017-05-13T22:59:15.407Z,3.48
2017-05-13T23:01:42.596Z,3.72
2017-05-13T23:04:10.523Z,3.66
2017-05-13T23:06:37.706Z,3.14
2017-05-13T23:09:05.640Z,3.74
2017-05-13T23:11:32.800Z,3.32
2017-05-13T23:14:00.017Z,3.72
2017-05-13T23:16:27.321Z,3.62
2017-05-13T23:18:55.232Z,4.18
2017-05-13T23:21:22.415Z,4.78
2017-05-13T23:23:49.579Z,4.10
2017-05-13T23:26:16.760Z,4.82
2017-05-13T23:28:44.000Z,4.80
2017-05-13T23:31:11.888Z,4.74
2017-05-13T23:33:39.168Z,4.40
2017-05-13T23:36:06.419Z,4.40
2017-05-13T23:38:33.575Z,3.98
2017-05-13T23:41:00.760Z,4.54
2017-05-13T23:43:28.724Z,5.12
2017-05-13T23:45:55.839Z,4.24
2017-05-13T23:48:22.988Z,4.48
2017-05-13T23:50:50.244Z,4.18
2017-05-13T23:53:17.436Z,3.82
2017-05-13T23:55:45.372Z,5.12
2017-05-13T23:58:19.600Z,4.32
